Dora, Missouri
Current Conditions -  °F | °C
As of 10:28 AM on Friday 19 Dec 2014 (Local Time) from KUNO Reporting Station
Haze Haze  
Wind Chill: 34°   Ceiling: 200
Heat Index: 34°   Visibility: 3mi
Dew Point: 33°   Wind: 3mph
Humidity: 96%   Direction: 140°SE
Pressure: 30.28"   Gusts: NA
Location:  36.78°N, 92.22°W
Report Text: KUNO 191628Z AUTO 14003KT 3SM BR OVC002 01/01 A3028 RMK AO2 T00110006
Loading
Personal Weather Stations






























Interactive Weather Map New forecast layout! Learn more

10-Day Weather Forecast

Advertisements
Track Severe Weather on mobile